createdAt,value
2022-09-04T00:00:00.335Z,76
2022-09-04T00:10:00.303Z,77
2022-09-04T00:20:00.290Z,77
2022-09-04T00:30:00.296Z,77
2022-09-04T00:40:00.585Z,77
2022-09-04T00:50:00.277Z,77
2022-09-04T01:00:00.352Z,77
2022-09-04T01:10:00.322Z,77
2022-09-04T01:20:00.343Z,77
2022-09-04T01:30:00.315Z,77
2022-09-04T01:40:00.522Z,77
2022-09-04T01:50:00.293Z,78
2022-09-04T02:00:00.386Z,78
2022-09-04T02:10:00.323Z,78
2022-09-04T02:20:00.330Z,78
2022-09-04T02:30:00.338Z,78
2022-09-04T02:40:00.630Z,78
2022-09-04T02:50:00.320Z,78
2022-09-04T03:00:00.374Z,78
2022-09-04T03:10:00.330Z,78
2022-09-04T03:20:00.452Z,78
2022-09-04T03:30:00.293Z,79
2022-09-04T03:40:00.938Z,79
2022-09-04T03:50:00.270Z,79
2022-09-04T04:00:00.370Z,79
2022-09-04T04:10:00.320Z,79
2022-09-04T04:20:00.296Z,79
2022-09-04T04:30:00.330Z,79
2022-09-04T04:40:00.491Z,79
2022-09-04T04:50:00.295Z,79
2022-09-04T05:00:00.295Z,79
2022-09-04T05:10:00.343Z,79
2022-09-04T05:20:00.309Z,79
2022-09-04T05:30:00.274Z,79
2022-09-04T05:40:00.600Z,80
2022-09-04T05:50:00.300Z,81
2022-09-04T06:00:00.314Z,81
2022-09-04T06:10:00.309Z,81
2022-09-04T06:20:00.358Z,82
2022-09-04T06:30:00.329Z,82
2022-09-04T06:40:00.552Z,81
2022-09-04T06:50:00.299Z,81
2022-09-04T07:00:00.300Z,80
2022-09-04T07:10:01.950Z,78
2022-09-04T07:20:00.771Z,76
2022-09-04T07:30:00.356Z,75
2022-09-04T07:40:01.423Z,74
2022-09-04T07:50:00.294Z,72
2022-09-04T08:00:00.304Z,71
2022-09-04T08:10:00.290Z,69
2022-09-04T08:20:00.299Z,67
2022-09-04T08:30:00.301Z,65
2022-09-04T08:40:00.505Z,65
2022-09-04T08:50:00.310Z,65
2022-09-04T09:00:00.338Z,64
2022-09-04T09:10:00.313Z,63
2022-09-04T09:20:00.313Z,62
2022-09-04T09:30:00.302Z,62
2022-09-04T09:40:00.457Z,62
2022-09-04T09:50:00.364Z,61
2022-09-04T10:00:00.291Z,61
2022-09-04T10:10:00.280Z,59
2022-09-04T10:20:00.301Z,59
2022-09-04T10:30:01.731Z,59
2022-09-04T10:40:00.595Z,58
2022-09-04T10:50:00.336Z,58
2022-09-04T11:00:00.371Z,59
2022-09-04T11:10:00.276Z,58
2022-09-04T11:20:00.306Z,59
2022-09-04T11:30:00.326Z,57
2022-09-04T11:40:00.484Z,57
2022-09-04T11:50:00.336Z,58
2022-09-04T12:00:00.326Z,57
2022-09-04T12:10:00.341Z,56
2022-09-04T12:20:00.277Z,57
2022-09-04T12:30:00.287Z,57
2022-09-04T12:40:00.527Z,58
2022-09-04T12:50:00.293Z,59
2022-09-04T13:00:00.283Z,57
2022-09-04T13:10:00.282Z,57
2022-09-04T13:20:00.346Z,57
2022-09-04T13:30:03.936Z,62
2022-09-04T13:40:00.654Z,63
2022-09-04T13:50:00.317Z,66
2022-09-04T14:00:00.326Z,68
2022-09-04T14:10:00.292Z,70
2022-09-04T14:20:00.316Z,72
2022-09-04T14:30:00.344Z,72
2022-09-04T14:40:00.485Z,73
2022-09-04T14:50:00.283Z,74
2022-09-04T15:00:00.321Z,76
2022-09-04T15:10:00.343Z,76
2022-09-04T15:20:00.312Z,76
2022-09-04T15:30:00.313Z,76
2022-09-04T15:40:00.586Z,77
2022-09-04T15:50:00.560Z,77
2022-09-04T16:00:00.488Z,77
2022-09-04T16:10:00.502Z,78
2022-09-04T16:20:00.610Z,78
2022-09-04T16:30:00.370Z,78
2022-09-04T16:40:00.741Z,78
2022-09-04T16:50:00.393Z,78
2022-09-04T17:00:00.283Z,78
2022-09-04T17:10:00.287Z,79
2022-09-04T17:20:00.312Z,79
2022-09-04T17:30:00.281Z,79
2022-09-04T17:40:45.619Z,79
2022-09-04T17:50:00.319Z,79
2022-09-04T18:00:00.379Z,79
2022-09-04T18:10:00.283Z,79
2022-09-04T18:20:00.303Z,79
2022-09-04T18:30:58.570Z,79
2022-09-04T18:40:00.501Z,79
2022-09-04T18:50:27.663Z,79
2022-09-04T19:00:09.393Z,79
2022-09-04T19:10:00.341Z,79
2022-09-04T19:20:02.685Z,79
2022-09-04T19:30:19.043Z,79
2022-09-04T19:43:11.617Z,79
2022-09-04T19:53:23.507Z,79
2022-09-04T20:00:31.110Z,79
2022-09-04T20:10:01.534Z,79
2022-09-04T20:20:00.334Z,79
2022-09-04T20:30:00.290Z,79
2022-09-04T20:40:00.554Z,79
2022-09-04T20:52:47.794Z,79
2022-09-04T21:02:28.369Z,79
2022-09-04T21:10:00.302Z,79
2022-09-04T21:20:00.363Z,79
2022-09-04T21:30:00.295Z,79
2022-09-04T21:40:00.447Z,79
2022-09-04T21:50:00.303Z,80
2022-09-04T22:02:34.046Z,80
2022-09-04T22:13:28.103Z,80
2022-09-04T22:20:00.369Z,80
2022-09-04T22:30:00.319Z,80
2022-09-04T22:40:00.535Z,80
2022-09-04T22:50:00.337Z,80
2022-09-04T23:00:00.307Z,80
2022-09-04T23:13:45.625Z,80
2022-09-04T23:24:07.392Z,80
2022-09-04T23:30:01.248Z,80
2022-09-04T23:40:00.517Z,80
2022-09-04T23:50:00.264Z,80
